Time;durP1;ratioP1;P1;durP2;ratioP2;P2;SDS_P1;SDS_P2;PMS_P1;PMS_P2;Temp;Humidity;BMP_temperature;BMP_pressure;BME280_temperature;BME280_humidity;BME280_pressure;Samples;Min_cycle;Max_cycle;Signal;HPM_P1;HPM_P2
2022/11/24 00:00:10;;;;;;;23.35;2.35;;;8.20;99.90;;;;;;5013403;28;20034;-74
2022/11/24 00:02:36;;;;;;;26.70;3.20;;;8.20;99.90;;;;;;5016317;28;20388;-74
2022/11/24 00:05:02;;;;;;;19.63;2.03;;;8.30;99.90;;;;;;5017018;28;20041;-73
2022/11/24 00:07:28;;;;;;;21.98;1.80;;;8.40;99.90;;;;;;5014852;28;20033;-74
2022/11/24 00:09:54;;;;;;;25.48;2.05;;;8.40;99.90;;;;;;5001989;28;20038;-74
2022/11/24 00:12:19;;;;;;;19.83;2.08;;;8.40;99.90;;;;;;5016951;28;20025;-76
2022/11/24 00:14:45;;;;;;;26.73;1.77;;;8.50;99.90;;;;;;5016932;28;20021;-75
2022/11/24 00:17:12;;;;;;;21.58;1.90;;;8.50;99.90;;;;;;5014835;28;20033;-74
2022/11/24 00:19:37;;;;;;;24.05;1.50;;;8.50;99.90;;;;;;5010869;28;20614;-74
2022/11/24 00:22:03;;;;;;;19.58;1.90;;;8.50;99.90;;;;;;5012704;28;20095;-74
2022/11/24 00:24:29;;;;;;;20.40;1.70;;;8.40;99.90;;;;;;5014354;28;20187;-74
2022/11/24 00:26:55;;;;;;;19.88;2.78;;;8.40;99.90;;;;;;5015974;28;20025;-75
2022/11/24 00:29:20;;;;;;;17.00;1.50;;;8.30;99.90;;;;;;5014492;28;20075;-75
2022/11/24 00:31:46;;;;;;;20.25;1.73;;;8.30;99.90;;;;;;4997163;28;20049;-74
2022/11/24 00:34:13;;;;;;;18.45;1.88;;;8.30;99.90;;;;;;5015397;28;20045;-75
2022/11/24 00:36:40;;;;;;;20.92;1.80;;;8.20;99.90;;;;;;4998486;28;20022;-74
2022/11/24 00:39:10;;;;;;;15.43;1.33;;;8.20;99.90;;;;;;5015345;28;20812;-75
2022/11/24 00:41:36;;;;;;;24.92;2.38;;;8.10;99.90;;;;;;5010753;28;20055;-74
2022/11/24 00:44:02;;;;;;;21.13;1.63;;;8.10;99.90;;;;;;5016325;28;20059;-75
2022/11/24 00:46:28;;;;;;;15.93;1.27;;;8.10;99.90;;;;;;5016191;28;20488;-74
2022/11/24 00:48:55;;;;;;;19.17;1.55;;;8.00;99.90;;;;;;5006511;28;20030;-74
2022/11/24 00:51:25;;;;;;;24.42;1.88;;;8.00;99.90;;;;;;5014842;28;20038;-74
2022/11/24 00:53:52;;;;;;;15.98;1.50;;;8.00;99.90;;;;;;4995513;28;22020;-75
2022/11/24 00:56:17;;;;;;;11.32;1.42;;;7.90;99.90;;;;;;5016687;28;20395;-75
2022/11/24 00:58:43;;;;;;;13.80;1.20;;;7.90;99.90;;;;;;5017820;28;20025;-76
2022/11/24 01:01:17;;;;;;;15.57;1.50;;;7.80;99.90;;;;;;5015382;28;20029;-74
2022/11/24 01:03:45;;;;;;;21.05;1.30;;;7.80;99.90;;;;;;5014052;28;20049;-75
2022/11/24 01:06:14;;;;;;;24.15;2.90;;;7.80;99.90;;;;;;5012955;28;20510;-74
2022/11/24 01:08:41;;;;;;;12.55;1.23;;;7.90;99.90;;;;;;5017672;28;20052;-75
2022/11/24 01:11:24;;;;;;;19.33;1.35;;;7.90;99.90;;;;;;5015611;28;20029;-73
2022/11/24 01:13:58;;;;;;;17.65;1.65;;;8.00;99.90;;;;;;5012364;28;20040;-74
2022/11/24 01:16:28;;;;;;;21.65;1.42;;;8.00;99.90;;;;;;5011644;28;20063;-74
2022/11/24 01:18:54;;;;;;;13.18;1.10;;;8.00;99.90;;;;;;5013772;28;20030;-74
2022/11/24 01:21:20;;;;;;;13.93;1.10;;;8.00;99.90;;;;;;4992843;28;20041;-75
2022/11/24 01:23:46;;;;;;;15.45;1.63;;;8.00;99.90;;;;;;5014351;28;20107;-74
2022/11/24 01:26:18;;;;;;;13.43;1.00;;;8.00;99.90;;;;;;5011139;28;20277;-74
2022/11/24 01:28:44;;;;;;;12.63;1.87;;;8.00;99.90;;;;;;5010938;28;20446;-74
2022/11/24 01:31:10;;;;;;;14.13;1.45;;;8.00;99.90;;;;;;5016545;28;20036;-75
2022/11/24 01:33:37;;;;;;;22.40;1.42;;;8.00;99.90;;;;;;5012947;28;20132;-74
2022/11/24 01:36:03;;;;;;;16.05;1.25;;;8.00;99.90;;;;;;5017602;28;20037;-74
2022/11/24 01:38:30;;;;;;;11.10;1.48;;;8.00;99.90;;;;;;5000911;28;20033;-75
2022/11/24 01:41:05;;;;;;;18.45;1.23;;;8.10;99.90;;;;;;5014644;28;20021;-75
2022/11/24 01:43:32;;;;;;;10.15;1.73;;;8.10;99.90;;;;;;5013535;28;20044;-74
2022/11/24 01:46:04;;;;;;;11.80;1.15;;;8.00;99.90;;;;;;5004227;28;20392;-75
2022/11/24 01:48:36;;;;;;;18.02;1.35;;;8.00;99.90;;;;;;5013200;28;20434;-75
2022/11/24 01:51:36;;;;;;;15.82;1.70;;;8.00;99.90;;;;;;5014587;28;20399;-74
2022/11/24 01:54:08;;;;;;;11.10;1.33;;;7.90;99.90;;;;;;4961659;28;20128;-74
2022/11/24 01:56:36;;;;;;;11.20;1.02;;;7.80;99.90;;;;;;4995272;28;20515;-75
2022/11/24 01:59:03;;;;;;;23.20;1.80;;;7.80;99.90;;;;;;5014287;28;20108;-74
2022/11/24 02:01:30;;;;;;;13.38;1.30;;;7.80;99.90;;;;;;4992605;28;20035;-75
2022/11/24 02:03:57;;;;;;;15.15;1.35;;;7.80;99.90;;;;;;5010959;28;20037;-74
2022/11/24 02:06:28;;;;;;;13.30;1.65;;;7.80;99.90;;;;;;5017008;28;20060;-75
2022/11/24 02:09:03;;;;;;;13.17;1.77;;;7.80;99.90;;;;;;5005727;28;20042;-74
2022/11/24 02:11:35;;;;;;;17.23;1.02;;;7.80;99.90;;;;;;5013440;28;20797;-75
2022/11/24 02:14:05;;;;;;;13.65;1.17;;;7.90;99.90;;;;;;5012969;28;20033;-74
2022/11/24 02:16:35;;;;;;;13.32;1.27;;;7.90;99.90;;;;;;5012080;28;20030;-72
2022/11/24 02:19:06;;;;;;;14.68;1.08;;;7.90;99.90;;;;;;5012078;28;20388;-73
2022/11/24 02:21:32;;;;;;;16.23;1.08;;;8.00;99.90;;;;;;5005945;28;20132;-75
2022/11/24 02:24:23;;;;;;;7.03;1.00;;;8.00;99.90;;;;;;5014253;28;20029;-74
2022/11/24 02:26:50;;;;;;;13.35;1.38;;;8.10;99.90;;;;;;5016548;28;20188;-75
2022/11/24 02:29:18;;;;;;;21.48;1.67;;;8.10;99.90;;;;;;5014488;28;20072;-73
2022/11/24 02:31:52;;;;;;;18.48;1.55;;;8.20;99.90;;;;;;5014302;28;20108;-73
2022/11/24 02:34:19;;;;;;;12.80;1.35;;;8.10;99.90;;;;;;5012100;28;20036;-75
2022/11/24 02:36:45;;;;;;;19.80;1.83;;;8.10;99.90;;;;;;5015839;28;20037;-74
2022/11/24 02:39:12;;;;;;;16.02;1.20;;;8.20;99.90;;;;;;5014657;28;20034;-74
2022/11/24 02:41:42;;;;;;;9.95;1.02;;;8.10;99.90;;;;;;5008941;28;20021;-74
2022/11/24 02:44:08;;;;;;;18.55;0.85;;;8.00;99.90;;;;;;4996939;28;20035;-75
2022/11/24 02:46:34;;;;;;;10.02;0.98;;;8.00;99.90;;;;;;5017515;28;20396;-75
2022/11/24 02:48:59;;;;;;;13.75;1.20;;;7.90;99.90;;;;;;5017024;28;20407;-74
2022/11/24 02:51:25;;;;;;;19.83;1.58;;;7.90;99.90;;;;;;5018088;28;20029;-75
2022/11/24 02:53:51;;;;;;;14.13;1.65;;;7.80;99.90;;;;;;5012429;28;20044;-75
2022/11/24 02:56:17;;;;;;;14.48;1.40;;;7.80;99.90;;;;;;5015440;28;20048;-74
2022/11/24 02:58:43;;;;;;;16.63;1.23;;;7.90;99.90;;;;;;5014790;28;20187;-74
2022/11/24 03:01:08;;;;;;;15.85;2.08;;;7.90;99.90;;;;;;5004886;28;20021;-74
2022/11/24 03:03:34;;;;;;;12.68;1.13;;;7.90;99.90;;;;;;5017069;28;20060;-73
2022/11/24 03:06:00;;;;;;;18.15;1.60;;;7.90;99.90;;;;;;4997689;28;21487;-75
2022/11/24 03:08:26;;;;;;;14.27;1.33;;;8.00;99.90;;;;;;4994182;28;20489;-75
2022/11/24 03:10:52;;;;;;;15.23;1.45;;;8.00;99.90;;;;;;5016499;28;20037;-75
2022/11/24 03:13:17;;;;;;;14.73;1.48;;;8.00;99.90;;;;;;5011761;28;20667;-75
2022/11/24 03:15:43;;;;;;;18.48;1.45;;;8.00;99.90;;;;;;5014912;28;20107;-75
2022/11/24 03:18:09;;;;;;;15.90;1.30;;;8.10;99.90;;;;;;5016627;28;20044;-74
2022/11/24 03:20:35;;;;;;;20.20;1.60;;;8.10;99.90;;;;;;4994612;28;20033;-76
2022/11/24 03:23:01;;;;;;;15.35;1.10;;;8.10;99.90;;;;;;5014021;28;20026;-74
2022/11/24 03:25:26;;;;;;;14.40;1.17;;;8.10;99.90;;;;;;4996136;28;20755;-74
2022/11/24 03:27:54;;;;;;;17.17;1.20;;;8.10;99.90;;;;;;5013066;28;20436;-75
2022/11/24 03:30:20;;;;;;;15.65;1.80;;;8.00;99.90;;;;;;5016752;28;20239;-74
2022/11/24 03:32:45;;;;;;;17.92;1.70;;;8.00;99.90;;;;;;5019692;28;20079;-74
2022/11/24 03:35:11;;;;;;;14.45;1.10;;;7.90;99.90;;;;;;4999970;28;20368;-74
2022/11/24 03:37:37;;;;;;;18.45;1.92;;;7.90;99.90;;;;;;5017895;28;20067;-75
2022/11/24 03:40:03;;;;;;;16.45;1.35;;;7.80;99.90;;;;;;5013313;28;20168;-73
2022/11/24 03:42:28;;;;;;;16.48;1.38;;;7.80;99.90;;;;;;5014343;28;20029;-74
2022/11/24 03:44:54;;;;;;;13.57;1.48;;;7.80;99.90;;;;;;5015735;28;20057;-74
2022/11/24 03:47:20;;;;;;;12.27;0.73;;;7.80;99.90;;;;;;5003644;28;20025;-74
2022/11/24 03:49:46;;;;;;;14.20;0.90;;;7.80;99.90;;;;;;5013768;28;20028;-74
2022/11/24 03:52:12;;;;;;;20.48;2.33;;;7.90;99.90;;;;;;5016193;28;20075;-75
2022/11/24 03:54:37;;;;;;;18.80;1.55;;;7.90;99.90;;;;;;5016212;28;20677;-76
2022/11/24 03:57:03;;;;;;;13.88;1.25;;;7.90;99.90;;;;;;5005088;28;20032;-74
2022/11/24 03:59:29;;;;;;;17.38;1.58;;;7.90;99.90;;;;;;5017871;28;20026;-74
2022/11/24 04:01:55;;;;;;;15.63;1.45;;;8.00;99.90;;;;;;5019676;28;20033;-76
2022/11/24 04:04:20;;;;;;;25.80;1.80;;;7.90;99.90;;;;;;5016934;28;20112;-74
2022/11/24 04:06:46;;;;;;;17.45;1.73;;;7.90;99.90;;;;;;5018645;28;20128;-74
2022/11/24 04:09:12;;;;;;;21.77;1.77;;;7.90;99.90;;;;;;5005390;28;20037;-75
2022/11/24 04:14:22;;;;;;;19.20;1.88;;;7.90;99.90;;;;;;5016486;28;20060;-75
2022/11/24 04:16:47;;;;;;;16.42;1.70;;;7.80;99.90;;;;;;5018385;28;20025;-75
2022/11/24 04:19:13;;;;;;;22.42;2.17;;;7.80;99.90;;;;;;5015304;28;20198;-74
2022/11/24 04:21:39;;;;;;;19.85;2.20;;;7.80;99.90;;;;;;4994451;28;20057;-74
2022/11/24 04:24:05;;;;;;;18.83;2.35;;;7.80;99.90;;;;;;5013891;28;20029;-76
2022/11/24 04:26:30;;;;;;;19.08;1.63;;;7.90;99.90;;;;;;5018386;28;20037;-74
2022/11/24 04:28:56;;;;;;;19.73;1.98;;;8.00;99.90;;;;;;5015418;28;21966;-74
2022/11/24 04:31:22;;;;;;;12.65;1.17;;;8.00;99.90;;;;;;5014344;28;20021;-74
2022/11/24 04:33:48;;;;;;;18.10;1.77;;;8.00;99.90;;;;;;5018521;28;20045;-74
2022/11/24 04:36:13;;;;;;;18.10;2.15;;;8.10;99.90;;;;;;5018376;28;20028;-74
2022/11/24 04:38:39;;;;;;;17.70;1.75;;;8.10;99.90;;;;;;5021833;28;20033;-74
2022/11/24 04:41:05;;;;;;;19.30;1.75;;;8.20;99.90;;;;;;5015709;28;20033;-74
2022/11/24 04:43:31;;;;;;;15.13;1.20;;;8.20;99.90;;;;;;5019140;28;20104;-74
2022/11/24 04:46:00;;;;;;;19.75;1.75;;;8.20;99.90;;;;;;5020980;28;20030;-73
2022/11/24 04:48:27;;;;;;;10.13;1.30;;;8.20;99.90;;;;;;5001494;28;20073;-73
2022/11/24 04:50:53;;;;;;;15.57;1.20;;;8.20;99.90;;;;;;5017107;28;20041;-74
2022/11/24 04:53:19;;;;;;;14.32;1.20;;;8.30;99.90;;;;;;4998852;28;20499;-75
2022/11/24 04:55:45;;;;;;;16.80;1.48;;;8.30;99.90;;;;;;5014656;28;20045;-75
2022/11/24 04:58:10;;;;;;;14.95;1.65;;;8.40;99.90;;;;;;4996944;28;20048;-74
2022/11/24 05:00:38;;;;;;;21.02;1.60;;;8.40;99.90;;;;;;5014047;28;20032;-75
2022/11/24 05:03:04;;;;;;;13.60;1.45;;;8.40;99.90;;;;;;5022388;28;20422;-73
2022/11/24 05:05:31;;;;;;;19.40;2.65;;;8.40;99.90;;;;;;5012767;28;20298;-75
2022/11/24 05:08:00;;;;;;;14.60;2.08;;;8.40;99.90;;;;;;5014702;28;20139;-75
2022/11/24 05:10:35;;;;;;;13.10;1.92;;;8.40;99.90;;;;;;5010844;28;22071;-75
2022/11/24 05:13:07;;;;;;;13.52;1.65;;;8.40;99.90;;;;;;5017795;28;20198;-74
2022/11/24 05:15:32;;;;;;;17.50;1.63;;;8.30;99.90;;;;;;5019233;28;20116;-75
2022/11/24 05:17:58;;;;;;;14.80;1.30;;;8.30;99.90;;;;;;4999433;28;20242;-75
2022/11/24 05:20:24;;;;;;;13.27;1.58;;;8.20;99.90;;;;;;5016737;28;20515;-74
2022/11/24 05:22:50;;;;;;;13.15;1.50;;;8.20;99.90;;;;;;5016531;28;20025;-74
2022/11/24 05:25:16;;;;;;;15.10;1.30;;;8.10;99.90;;;;;;4997396;28;20518;-74
2022/11/24 05:27:41;;;;;;;10.75;1.00;;;8.10;99.90;;;;;;5017661;28;20467;-74
2022/11/24 05:30:08;;;;;;;9.95;0.70;;;8.00;99.90;;;;;;5017678;28;20095;-74
2022/11/24 05:32:34;;;;;;;6.25;0.70;;;8.00;99.90;;;;;;5019796;28;20132;-74
2022/11/24 05:35:01;;;;;;;5.35;0.95;;;8.00;99.90;;;;;;5009303;28;20108;-75
2022/11/24 05:37:34;;;;;;;6.15;0.40;;;8.00;99.90;;;;;;5020379;28;20763;-74
2022/11/24 05:40:00;;;;;;;4.22;0.47;;;8.00;99.90;;;;;;5021367;28;20048;-74
2022/11/24 05:45:17;;;;;;;7.65;0.60;;;8.00;99.90;;;;;;5021692;28;20083;-74
2022/11/24 05:47:43;;;;;;;7.47;0.82;;;8.00;99.90;;;;;;5029221;28;20112;-74
2022/11/24 05:50:11;;;;;;;3.15;0.60;;;8.00;99.90;;;;;;5011388;28;20483;-74
2022/11/24 05:52:37;;;;;;;4.70;0.60;;;8.00;99.90;;;;;;5031309;28;20672;-74
2022/11/24 05:55:03;;;;;;;5.22;0.60;;;8.00;99.90;;;;;;5032523;28;20029;-75
2022/11/24 05:57:29;;;;;;;6.65;0.80;;;8.00;99.90;;;;;;5017205;28;20029;-75
2022/11/24 05:59:55;;;;;;;3.47;0.50;;;8.00;99.90;;;;;;5024636;28;20028;-73
2022/11/24 06:02:20;;;;;;;7.13;0.50;;;8.00;99.90;;;;;;5029694;28;20025;-74
2022/11/24 06:04:49;;;;;;;6.60;0.90;;;8.00;99.90;;;;;;5029540;28;20044;-75
2022/11/24 06:07:15;;;;;;;4.70;0.75;;;8.00;99.90;;;;;;5021410;28;20076;-74
2022/11/24 06:09:42;;;;;;;4.80;0.60;;;8.00;99.90;;;;;;5017232;28;20037;-73
2022/11/24 06:12:09;;;;;;;4.53;0.40;;;8.00;99.90;;;;;;5012548;28;20022;-75
2022/11/24 06:14:36;;;;;;;7.20;0.70;;;8.00;99.90;;;;;;5029193;28;20036;-74
2022/11/24 06:17:02;;;;;;;5.05;0.52;;;8.00;99.90;;;;;;5007794;28;20041;-75
2022/11/24 06:19:28;;;;;;;5.10;0.43;;;8.00;99.90;;;;;;5023814;28;20017;-74
2022/11/24 06:21:54;;;;;;;4.75;0.52;;;8.00;99.90;;;;;;5015224;28;20052;-74
2022/11/24 06:24:19;;;;;;;9.48;0.55;;;7.90;99.90;;;;;;5033915;28;20030;-74
2022/11/24 06:26:48;;;;;;;2.58;0.45;;;7.90;99.90;;;;;;5017489;28;20024;-75
2022/11/24 06:29:14;;;;;;;5.68;1.25;;;8.00;99.90;;;;;;5034020;28;20112;-75
2022/11/24 06:31:40;;;;;;;6.28;0.55;;;8.00;99.90;;;;;;5032298;28;20036;-75
2022/11/24 06:34:07;;;;;;;8.38;0.90;;;8.00;99.90;;;;;;5026550;28;20033;-75
2022/11/24 06:36:33;;;;;;;10.15;1.25;;;8.00;99.90;;;;;;5033710;28;20036;-75
2022/11/24 06:39:01;;;;;;;11.63;1.00;;;8.10;99.90;;;;;;5025964;28;20030;-74
2022/11/24 06:41:27;;;;;;;5.05;0.90;;;8.20;99.90;;;;;;5034542;28;20022;-73
2022/11/24 06:43:53;;;;;;;4.15;0.75;;;8.20;99.90;;;;;;5032914;28;20026;-75
2022/11/24 06:46:25;;;;;;;7.90;1.00;;;8.30;99.90;;;;;;4998656;28;20476;-75
2022/11/24 06:48:51;;;;;;;8.40;0.73;;;8.30;99.90;;;;;;5014017;28;20034;-74
2022/11/24 06:51:17;;;;;;;4.97;0.50;;;8.30;99.90;;;;;;5015119;28;20033;-75
2022/11/24 06:53:44;;;;;;;8.27;0.80;;;8.20;99.90;;;;;;5027701;28;20048;-74
2022/11/24 06:56:12;;;;;;;3.75;0.90;;;8.20;99.90;;;;;;5007833;28;20025;-75
2022/11/24 06:58:43;;;;;;;4.45;0.80;;;8.20;99.90;;;;;;5025722;28;20369;-74
2022/11/24 07:01:12;;;;;;;4.30;1.30;;;8.30;99.90;;;;;;5029878;28;20102;-74
2022/11/24 07:03:38;;;;;;;6.50;1.15;;;8.20;99.90;;;;;;5027888;28;20022;-74
2022/11/24 07:06:04;;;;;;;10.18;1.10;;;8.30;99.90;;;;;;5027162;28;20029;-73
2022/11/24 07:08:30;;;;;;;5.63;1.52;;;8.30;99.90;;;;;;5033076;28;20041;-73
2022/11/24 07:10:55;;;;;;;7.85;1.88;;;8.30;99.90;;;;;;5012305;28;20026;-75
2022/11/24 07:13:21;;;;;;;7.40;1.88;;;8.30;99.90;;;;;;5023538;28;20057;-74
2022/11/24 07:15:47;;;;;;;6.25;2.13;;;8.30;99.90;;;;;;5034964;28;20022;-75
2022/11/24 07:18:13;;;;;;;7.82;2.03;;;8.30;99.90;;;;;;5035974;28;20444;-75
2022/11/24 07:20:38;;;;;;;7.07;2.72;;;8.30;99.90;;;;;;5014909;28;20048;-75
2022/11/24 07:23:05;;;;;;;8.02;2.33;;;8.30;99.90;;;;;;5032916;28;20029;-75
2022/11/24 07:25:32;;;;;;;9.48;2.67;;;8.20;99.90;;;;;;5033738;28;20033;-74
2022/11/24 07:27:58;;;;;;;8.48;3.42;;;8.30;99.90;;;;;;5028869;28;20030;-75
2022/11/24 07:30:26;;;;;;;13.05;3.22;;;8.30;99.90;;;;;;5030607;28;20040;-75
2022/11/24 07:32:58;;;;;;;11.75;3.05;;;8.30;99.90;;;;;;5018350;28;20052;-74
2022/11/24 07:35:23;;;;;;;9.00;2.90;;;8.30;99.90;;;;;;5013508;28;20021;-74
2022/11/24 07:37:49;;;;;;;11.10;3.10;;;8.30;99.90;;;;;;5031266;28;20033;-74
2022/11/24 07:40:15;;;;;;;7.95;2.55;;;8.30;99.90;;;;;;5025007;28;20041;-73
2022/11/24 07:42:40;;;;;;;9.98;2.67;;;8.30;99.90;;;;;;5005064;28;20056;-75
2022/11/24 07:45:06;;;;;;;7.93;2.40;;;8.30;99.90;;;;;;5025085;28;20021;-75
2022/11/24 07:47:32;;;;;;;10.40;2.85;;;8.40;99.90;;;;;;5033074;28;20438;-75
2022/11/24 07:49:58;;;;;;;11.73;2.22;;;8.40;99.90;;;;;;5034368;28;20037;-73
2022/11/24 07:52:25;;;;;;;8.50;2.38;;;8.30;99.90;;;;;;5033020;28;20091;-73
2022/11/24 07:54:51;;;;;;;7.10;2.28;;;8.30;99.90;;;;;;5034685;28;20026;-74
2022/11/24 07:57:16;;;;;;;8.75;2.20;;;8.20;99.90;;;;;;5033632;28;20037;-74
2022/11/24 07:59:45;;;;;;;8.18;1.90;;;8.30;99.90;;;;;;5041925;28;20387;-74
2022/11/24 08:02:12;;;;;;;11.85;2.60;;;8.20;99.90;;;;;;5036219;28;20040;-73
2022/11/24 08:04:37;;;;;;;9.85;2.00;;;8.30;99.90;;;;;;5034051;28;20030;-77
2022/11/24 08:07:03;;;;;;;9.38;2.00;;;8.30;99.90;;;;;;5019191;28;20029;-73
2022/11/24 08:09:28;;;;;;;12.00;2.45;;;8.30;99.90;;;;;;5033684;28;20120;-72
2022/11/24 08:11:54;;;;;;;12.85;2.53;;;8.30;99.90;;;;;;5034512;28;20025;-73
2022/11/24 08:14:19;;;;;;;5.88;1.50;;;8.30;99.90;;;;;;5018062;28;20083;-74
2022/11/24 08:16:45;;;;;;;6.47;1.70;;;8.30;99.90;;;;;;5037086;28;20013;-73
2022/11/24 08:19:11;;;;;;;13.48;2.05;;;8.40;99.90;;;;;;5034535;28;20048;-73
2022/11/24 08:21:45;;;;;;;10.60;1.88;;;8.40;99.90;;;;;;5015758;28;20021;-74
2022/11/24 08:24:12;;;;;;;10.38;1.77;;;8.40;99.90;;;;;;5030724;28;20115;-75
2022/11/24 08:26:38;;;;;;;12.13;2.50;;;8.40;99.90;;;;;;5031385;28;20026;-76
2022/11/24 08:29:03;;;;;;;8.13;1.90;;;8.40;99.90;;;;;;5012861;28;20030;-75
2022/11/24 08:31:32;;;;;;;10.85;1.58;;;8.40;99.90;;;;;;5012069;28;20470;-74
2022/11/24 08:33:58;;;;;;;7.28;1.35;;;8.40;99.90;;;;;;5025045;28;20033;-75
2022/11/24 08:36:24;;;;;;;6.05;1.30;;;8.50;99.90;;;;;;5035037;28;20025;-75
2022/11/24 08:38:55;;;;;;;10.63;1.65;;;8.50;99.90;;;;;;5034937;28;20026;-73
2022/11/24 08:41:24;;;;;;;11.60;1.45;;;8.50;99.90;;;;;;5036345;28;20030;-74
2022/11/24 08:43:49;;;;;;;4.82;1.20;;;8.50;99.90;;;;;;5038505;28;20025;-74
2022/11/24 08:46:17;;;;;;;7.22;1.05;;;8.50;99.90;;;;;;5035483;28;20038;-73
2022/11/24 08:48:46;;;;;;;10.30;1.27;;;8.50;99.90;;;;;;5034147;28;20059;-74
2022/11/24 08:51:13;;;;;;;7.25;0.90;;;8.50;99.90;;;;;;5034948;28;20026;-74
2022/11/24 08:53:40;;;;;;;11.13;1.40;;;8.50;99.90;;;;;;5033346;28;20036;-74
2022/11/24 08:56:06;;;;;;;7.18;0.88;;;8.50;99.90;;;;;;5034106;28;20029;-74
2022/11/24 08:58:32;;;;;;;7.00;1.48;;;8.50;99.90;;;;;;5033667;28;20037;-74
2022/11/24 09:01:15;;;;;;;10.32;0.90;;;8.60;99.90;;;;;;5033713;28;20067;-73
2022/11/24 09:03:42;;;;;;;11.25;0.93;;;8.60;99.90;;;;;;5034647;28;20116;-73
2022/11/24 09:06:08;;;;;;;6.53;1.02;;;8.70;99.90;;;;;;5036817;28;20037;-74
2022/11/24 09:08:36;;;;;;;9.93;1.00;;;8.70;99.90;;;;;;5014395;28;20038;-74
2022/11/24 09:11:06;;;;;;;7.13;1.23;;;8.80;99.90;;;;;;5023341;28;20049;-74
2022/11/24 09:13:32;;;;;;;8.43;1.17;;;8.90;99.90;;;;;;5015342;28;20025;-75
2022/11/24 09:16:15;;;;;;;8.02;0.77;;;8.90;99.90;;;;;;5034835;28;20183;-74
2022/11/24 09:18:41;;;;;;;9.48;1.00;;;9.00;99.90;;;;;;5032888;28;20026;-74
2022/11/24 09:21:11;;;;;;;6.32;0.80;;;8.90;99.90;;;;;;5033490;28;20029;-74
2022/11/24 09:23:38;;;;;;;10.60;1.20;;;8.90;99.90;;;;;;5030177;28;20075;-74
2022/11/24 09:26:12;;;;;;;11.77;1.08;;;9.00;99.90;;;;;;5028459;28;20036;-74
2022/11/24 09:28:38;;;;;;;9.48;1.00;;;9.00;99.90;;;;;;5027811;28;20052;-75
2022/11/24 09:31:06;;;;;;;11.75;1.08;;;9.00;99.90;;;;;;5015372;28;20022;-74
2022/11/24 09:33:33;;;;;;;6.28;0.60;;;9.10;99.90;;;;;;5034660;28;20080;-75
2022/11/24 09:35:59;;;;;;;18.30;1.55;;;9.10;99.90;;;;;;5015006;28;20084;-74
2022/11/24 09:38:25;;;;;;;11.02;0.90;;;9.10;99.90;;;;;;5014258;28;20117;-74
2022/11/24 09:40:54;;;;;;;5.88;1.08;;;9.20;99.90;;;;;;5014999;28;20029;-74
2022/11/24 09:43:44;;;;;;;10.23;1.15;;;9.20;99.90;;;;;;5030373;28;20482;-74
2022/11/24 09:46:22;;;;;;;12.90;1.20;;;9.20;99.90;;;;;;5020089;28;20029;-73
2022/11/24 09:48:51;;;;;;;6.03;1.02;;;9.20;99.90;;;;;;5030960;28;20042;-74
2022/11/24 09:51:23;;;;;;;11.50;1.10;;;9.20;99.90;;;;;;5031260;28;20487;-73
2022/11/24 09:53:58;;;;;;;13.73;1.10;;;9.20;99.90;;;;;;5029564;28;20029;-74
2022/11/24 09:56:27;;;;;;;8.50;0.80;;;9.20;99.90;;;;;;5013040;28;20033;-74
2022/11/24 09:59:15;;;;;;;5.60;0.82;;;9.20;99.90;;;;;;5031450;28;20145;-74
2022/11/24 10:01:43;;;;;;;8.93;0.98;;;9.30;99.90;;;;;;5031572;28;20037;-74
2022/11/24 10:04:36;;;;;;;12.90;0.93;;;9.30;99.90;;;;;;5013908;28;20564;-74
2022/11/24 10:07:17;;;;;;;10.48;1.27;;;9.30;99.90;;;;;;5030852;28;20563;-74
2022/11/24 10:10:02;;;;;;;10.20;1.00;;;9.30;99.90;;;;;;5012572;28;20530;-73
2022/11/24 10:12:46;;;;;;;6.53;1.27;;;9.40;99.90;;;;;;5031023;28;20037;-75
2022/11/24 10:15:24;;;;;;;14.25;1.20;;;9.40;99.90;;;;;;5029589;28;20041;-74
2022/11/24 10:18:12;;;;;;;10.75;1.20;;;9.50;99.90;;;;;;5030902;28;20026;-75
2022/11/24 10:21:16;;;;;;;10.32;0.88;;;9.50;99.90;;;;;;5023027;28;20399;-74
2022/11/24 10:24:09;;;;;;;14.10;1.13;;;9.60;99.90;;;;;;5011541;28;20108;-74
2022/11/24 10:26:40;;;;;;;;;;;9.60;99.90;;;;;;5016514;28;20124;-74
2022/11/24 10:29:20;;;;;;;11.63;1.10;;;9.60;99.90;;;;;;5032098;28;20393;-74
2022/11/24 10:31:49;;;;;;;10.48;1.55;;;9.60;99.90;;;;;;5033004;28;20117;-73
2022/11/24 10:34:26;;;;;;;10.63;1.10;;;9.60;99.90;;;;;;5023273;28;20025;-75
2022/11/24 10:37:13;;;;;;;12.65;1.38;;;9.70;99.90;;;;;;5030678;28;20031;-73
2022/11/24 10:39:49;;;;;;;14.18;0.80;;;9.70;99.90;;;;;;5013420;28;20037;-74
2022/11/24 10:42:14;;;;;;;11.93;1.10;;;9.70;99.90;;;;;;5030765;28;20025;-74
2022/11/24 10:44:41;;;;;;;11.35;1.10;;;9.80;99.90;;;;;;5029899;28;20037;-74
2022/11/24 10:47:18;;;;;;;14.10;1.20;;;9.80;99.90;;;;;;5030980;28;20111;-75
2022/11/24 10:49:51;;;;;;;10.80;1.10;;;9.80;99.90;;;;;;5025271;28;20132;-74
2022/11/24 10:52:18;;;;;;;10.52;1.20;;;9.90;99.90;;;;;;5012095;28;20088;-73
2022/11/24 10:54:57;;;;;;;14.95;2.05;;;9.90;99.90;;;;;;5012584;28;20057;-75
2022/11/24 10:57:42;;;;;;;11.95;1.20;;;9.90;99.90;;;;;;5012612;28;20372;-74
2022/11/24 11:00:17;;;;;;;12.10;1.27;;;9.90;99.90;;;;;;5027899;28;20108;-75
2022/11/24 11:02:43;;;;;;;13.57;2.08;;;9.90;99.90;;;;;;5029550;28;20029;-75
2022/11/24 11:05:40;;;;;;;11.65;1.20;;;10.00;99.90;;;;;;5031881;28;20372;-74
2022/11/24 11:08:27;;;;;;;11.55;1.10;;;10.00;99.90;;;;;;5033000;28;20034;-74
2022/11/24 11:11:12;;;;;;;17.30;2.00;;;10.00;99.90;;;;;;5034779;28;20029;-74
2022/11/24 11:13:59;;;;;;;13.18;1.48;;;10.00;99.90;;;;;;5031585;28;20018;-74
2022/11/24 11:16:36;;;;;;;17.80;2.63;;;10.00;99.90;;;;;;5033299;28;20448;-75
2022/11/24 11:19:05;;;;;;;11.23;1.20;;;10.10;99.90;;;;;;5013058;28;20491;-74
2022/11/24 11:21:36;;;;;;;14.77;2.45;;;10.10;99.90;;;;;;5033784;28;20029;-74
2022/11/24 11:24:14;;;;;;;17.77;1.83;;;10.10;99.90;;;;;;5010637;28;20026;-75
2022/11/24 11:26:41;;;;;;;11.93;1.08;;;10.20;99.90;;;;;;5029841;28;20029;-73
2022/11/24 11:29:14;;;;;;;15.02;2.08;;;10.20;99.90;;;;;;5029197;28;20120;-74
2022/11/24 11:31:40;;;;;;;13.60;1.40;;;10.30;99.90;;;;;;5033591;28;20030;-75
2022/11/24 11:34:09;;;;;;;13.77;1.63;;;10.30;99.90;;;;;;5032039;28;20033;-74
2022/11/24 11:36:55;;;;;;;13.80;1.73;;;10.30;99.90;;;;;;5033795;28;20033;-74
2022/11/24 11:39:40;;;;;;;13.85;1.30;;;10.40;99.90;;;;;;5029051;28;20089;-75
2022/11/24 11:42:27;;;;;;;17.23;1.20;;;10.40;99.90;;;;;;5012188;28;20017;-74
2022/11/24 11:44:58;;;;;;;14.90;1.30;;;10.40;99.90;;;;;;5032428;28;20041;-74
2022/11/24 11:47:59;;;;;;;15.02;1.30;;;10.50;99.90;;;;;;5013443;28;20049;-74
2022/11/24 11:50:44;;;;;;;13.73;1.23;;;10.60;99.90;;;;;;5011892;28;20053;-74
2022/11/24 11:53:28;;;;;;;9.43;1.30;;;10.60;99.90;;;;;;5031729;28;20026;-74
2022/11/24 11:56:23;;;;;;;15.15;1.55;;;10.60;99.90;;;;;;5033135;28;20120;-74
2022/11/24 11:59:26;;;;;;;12.90;1.40;;;10.60;99.90;;;;;;5033009;28;20032;-74
2022/11/24 12:02:19;;;;;;;27.60;2.13;;;10.70;99.90;;;;;;4972022;28;20037;-74
2022/11/24 12:04:52;;;;;;;;;;;10.80;99.90;;;;;;5032016;28;20034;-74
2022/11/24 12:07:42;;;;;;;16.98;1.50;;;10.80;99.90;;;;;;5016000;28;19999;-75
2022/11/24 12:10:34;;;;;;;15.98;1.98;;;10.80;99.90;;;;;;5013015;28;20479;-74
2022/11/24 12:13:25;;;;;;;20.40;1.60;;;10.90;99.90;;;;;;5030773;28;20514;-74
2022/11/24 12:15:54;;;;;;;15.60;2.40;;;10.90;99.90;;;;;;5027854;28;20112;-74
2022/11/24 12:18:39;;;;;;;12.18;1.58;;;11.00;99.90;;;;;;5027660;28;20029;-74
2022/11/24 12:21:23;;;;;;;20.15;1.42;;;11.10;99.90;;;;;;5034534;28;20030;-73
2022/11/24 12:23:55;;;;;;;15.82;1.45;;;11.10;99.90;;;;;;5008256;28;20075;-73
2022/11/24 12:26:30;;;;;;;16.65;1.83;;;11.10;99.90;;;;;;5032790;28;20155;-74
2022/11/24 12:29:02;;;;;;;13.35;1.88;;;11.20;99.90;;;;;;5032808;28;20495;-74
2022/11/24 12:31:54;;;;;;;15.70;1.50;;;11.20;99.90;;;;;;5025753;28;20029;-74
2022/11/24 12:34:26;;;;;;;12.38;0.95;;;11.30;99.90;;;;;;5028309;28;20061;-75
2022/11/24 12:36:55;;;;;;;;;;;11.30;99.90;;;;;;5014435;28;20483;-74
2022/11/24 12:39:42;;;;;;;12.98;1.00;;;11.30;99.90;;;;;;5020799;28;19909;-73
2022/11/24 12:42:34;;;;;;;16.20;1.67;;;11.30;99.90;;;;;;5012934;28;20051;-73
2022/11/24 12:45:12;;;;;;;16.23;1.50;;;11.30;99.90;;;;;;5031104;28;20026;-72
2022/11/24 12:47:55;;;;;;;14.88;1.15;;;11.40;99.90;;;;;;5032607;28;20056;-74
2022/11/24 12:50:30;;;;;;;14.52;1.10;;;11.40;99.90;;;;;;5029370;28;20173;-74
2022/11/24 12:53:10;;;;;;;13.95;1.40;;;11.50;99.90;;;;;;5020674;28;20022;-75
2022/11/24 12:55:38;;;;;;;14.02;1.45;;;11.50;99.90;;;;;;5032795;28;20029;-74
2022/11/24 12:58:28;;;;;;;12.68;1.35;;;11.60;99.90;;;;;;5023323;28;20407;-74
2022/11/24 13:00:54;;;;;;;16.50;1.50;;;11.60;99.90;;;;;;5034730;28;20032;-74
2022/11/24 13:03:57;;;;;;;19.85;1.30;;;11.60;99.90;;;;;;5031298;28;20128;-75
2022/11/24 13:06:37;;;;;;;9.35;1.45;;;11.70;99.90;;;;;;5010027;28;20083;-75
2022/11/24 13:09:15;;;;;;;16.48;1.77;;;11.70;99.90;;;;;;5025478;28;20033;-76